Time;durP1;ratioP1;P1;durP2;ratioP2;P2;SDS_P1;SDS_P2;PMS_P1;PMS_P2;Temp;Humidity;BMP_temperature;BMP_pressure;BME280_temperature;BME280_humidity;BME280_pressure;Samples;Min_cycle;Max_cycle;Signal;HPM_P1;HPM_P2
2022/06/23 00:00:51;;;;;;;5.80;4.63;;;20.40;99.90;;;;;;4973398;28;20241;-77
2022/06/23 00:03:23;;;;;;;4.78;4.25;;;20.30;99.90;;;;;;4964023;28;20198;-76
2022/06/23 00:05:57;;;;;;;5.47;4.40;;;20.40;99.90;;;;;;4959222;28;20217;-77
2022/06/23 00:08:24;;;;;;;5.32;4.53;;;20.40;99.90;;;;;;4957002;28;20538;-76
2022/06/23 00:10:54;;;;;;;4.90;4.22;;;20.30;99.90;;;;;;4967511;28;20230;-76
2022/06/23 00:13:27;;;;;;;4.72;4.25;;;20.30;99.90;;;;;;4962928;28;20577;-77
2022/06/23 00:15:56;;;;;;;7.05;4.03;;;20.30;99.90;;;;;;4964305;28;20619;-76
2022/06/23 00:18:26;;;;;;;6.25;4.68;;;20.30;99.90;;;;;;4961743;28;20226;-76
2022/06/23 00:20:58;;;;;;;5.07;4.57;;;20.30;99.90;;;;;;4962790;28;20226;-76
2022/06/23 00:23:30;;;;;;;4.68;4.22;;;20.30;99.90;;;;;;4977978;23;20229;-77
2022/06/23 00:26:01;;;;;;;4.82;4.43;;;20.30;99.90;;;;;;4962462;28;20225;-78
2022/06/23 00:28:32;;;;;;;5.15;4.18;;;20.30;99.90;;;;;;4961458;28;20209;-78
2022/06/23 00:31:01;;;;;;;4.30;3.90;;;20.30;99.90;;;;;;4964015;28;20245;-79
2022/06/23 00:33:31;;;;;;;4.63;4.10;;;20.30;99.90;;;;;;4960973;28;20696;-78
2022/06/23 00:36:00;;;;;;;5.43;4.72;;;20.30;99.90;;;;;;4958642;28;20727;-78
2022/06/23 00:38:31;;;;;;;5.68;4.97;;;20.30;99.90;;;;;;4961240;28;20222;-78
2022/06/23 00:41:00;;;;;;;5.65;4.65;;;20.20;99.90;;;;;;4964659;28;20222;-78
2022/06/23 00:43:29;;;;;;;4.95;4.53;;;20.10;99.90;;;;;;4958079;28;20221;-79
2022/06/23 00:46:16;;;;;;;4.72;4.20;;;20.00;99.90;;;;;;4969953;28;20739;-78
2022/06/23 00:48:48;;;;;;;4.90;4.50;;;19.90;99.90;;;;;;4961904;28;20204;-78
2022/06/23 00:51:22;;;;;;;5.13;4.63;;;19.90;99.90;;;;;;4958525;28;20217;-78
2022/06/23 00:53:56;;;;;;;5.72;5.00;;;19.80;99.90;;;;;;4970819;28;20214;-79
2022/06/23 00:56:33;;;;;;;5.75;4.80;;;19.80;99.90;;;;;;4962613;28;20253;-78
2022/06/23 00:59:04;;;;;;;4.68;4.22;;;19.80;99.90;;;;;;4958669;28;20215;-78
2022/06/23 01:01:41;;;;;;;6.90;4.93;;;19.70;99.90;;;;;;4963161;28;20712;-78
2022/06/23 01:04:21;;;;;;;5.10;4.13;;;19.70;99.90;;;;;;4959197;28;20208;-78
2022/06/23 01:06:53;;;;;;;4.60;4.20;;;19.70;99.90;;;;;;4965413;28;20229;-78
2022/06/23 01:09:27;;;;;;;5.43;4.38;;;19.70;99.90;;;;;;4966418;28;20199;-78
2022/06/23 01:11:58;;;;;;;5.28;4.78;;;19.60;99.90;;;;;;4963253;28;20244;-78
2022/06/23 01:14:34;;;;;;;8.18;4.57;;;19.60;99.90;;;;;;4965440;28;20690;-78
2022/06/23 01:17:09;;;;;;;5.65;4.32;;;19.60;99.90;;;;;;4964168;28;20224;-79
2022/06/23 01:20:19;;;;;;;5.57;4.63;;;19.60;99.90;;;;;;4964476;28;20611;-78
2022/06/23 01:23:15;;;;;;;7.28;5.25;;;19.50;99.90;;;;;;4949181;28;20214;-78
2022/06/23 01:26:10;;;;;;;5.20;4.70;;;19.40;99.90;;;;;;4965441;28;20906;-79
2022/06/23 01:28:41;;;;;;;5.97;4.70;;;19.40;99.90;;;;;;4963902;28;20237;-79
2022/06/23 01:31:16;;;;;;;4.95;4.20;;;19.30;99.90;;;;;;4969546;28;20643;-79
2022/06/23 01:33:49;;;;;;;6.95;5.03;;;19.30;99.90;;;;;;4969723;28;20374;-78
2022/06/23 01:36:21;;;;;;;4.82;4.35;;;19.40;99.90;;;;;;4973020;28;20665;-80
2022/06/23 01:38:56;;;;;;;5.10;4.60;;;19.30;99.90;;;;;;4978092;28;20225;-79
2022/06/23 01:41:31;;;;;;;7.00;4.90;;;19.30;99.90;;;;;;4974186;28;20213;-79
2022/06/23 01:44:09;;;;;;;6.18;5.03;;;19.30;99.90;;;;;;4963396;28;20311;-78
2022/06/23 01:46:38;;;;;;;6.85;4.75;;;19.30;99.90;;;;;;4965409;28;20212;-79
2022/06/23 01:49:14;;;;;;;6.28;4.68;;;19.30;99.90;;;;;;4955143;28;20234;-79
2022/06/23 01:51:46;;;;;;;5.97;4.50;;;19.20;99.90;;;;;;4966617;28;20201;-79
2022/06/23 01:54:18;;;;;;;4.40;4.00;;;19.20;99.90;;;;;;4965536;28;20691;-77
2022/06/23 01:56:58;;;;;;;4.13;3.75;;;19.30;99.90;;;;;;4967873;28;20201;-78
2022/06/23 01:59:52;;;;;;;5.15;4.18;;;19.30;99.90;;;;;;4969635;28;21127;-79
2022/06/23 02:02:33;;;;;;;5.20;4.70;;;19.30;99.90;;;;;;4968754;28;20236;-78
2022/06/23 02:05:11;;;;;;;4.95;4.55;;;19.30;99.90;;;;;;4963194;28;20740;-79
2022/06/23 02:07:48;;;;;;;4.75;4.30;;;19.30;99.90;;;;;;4963603;28;20217;-79
2022/06/23 02:10:24;;;;;;;5.07;4.15;;;19.40;99.90;;;;;;4966761;28;20197;-79
2022/06/23 02:12:57;;;;;;;6.30;4.50;;;19.40;99.90;;;;;;4965464;28;20236;-79
2022/06/23 02:15:29;;;;;;;4.78;4.38;;;19.40;99.90;;;;;;4962617;28;20311;-79
2022/06/23 02:18:01;;;;;;;4.80;4.40;;;19.40;99.90;;;;;;4967738;28;20226;-79
2022/06/23 02:20:37;;;;;;;5.45;4.95;;;19.40;99.90;;;;;;4972803;28;20631;-79
2022/06/23 02:23:17;;;;;;;5.45;4.93;;;19.30;99.90;;;;;;4972578;28;20229;-78
2022/06/23 02:25:52;;;;;;;4.95;4.55;;;19.30;99.90;;;;;;4969161;28;20201;-78
2022/06/23 02:28:26;;;;;;;5.15;4.55;;;19.30;99.90;;;;;;4971010;28;20267;-79
2022/06/23 02:31:01;;;;;;;6.07;5.18;;;19.30;99.90;;;;;;4971373;28;20228;-79
2022/06/23 02:33:35;;;;;;;4.97;4.00;;;19.30;99.90;;;;;;4968233;28;20228;-79
2022/06/23 02:36:13;;;;;;;5.13;4.15;;;19.40;99.90;;;;;;4967787;28;20692;-79
2022/06/23 02:38:45;;;;;;;4.63;4.22;;;19.30;99.90;;;;;;4964143;28;20269;-79
2022/06/23 02:41:18;;;;;;;4.65;4.25;;;19.40;99.90;;;;;;4970000;28;20680;-78
2022/06/23 02:43:48;;;;;;;7.05;4.50;;;19.40;99.90;;;;;;4968158;28;20225;-78
2022/06/23 02:46:45;;;;;;;4.57;3.88;;;19.40;99.90;;;;;;4966494;28;20213;-78
2022/06/23 02:49:33;;;;;;;4.80;4.38;;;19.40;99.90;;;;;;4964300;28;20225;-79
2022/06/23 02:52:28;;;;;;;4.20;3.80;;;19.40;99.90;;;;;;4964839;28;20229;-78
2022/06/23 02:55:10;;;;;;;4.35;3.95;;;19.40;99.90;;;;;;4959956;28;20203;-78
2022/06/23 02:57:41;;;;;;;5.45;4.40;;;19.40;99.90;;;;;;4966030;28;20213;-78
2022/06/23 03:00:18;;;;;;;4.30;3.90;;;19.30;99.90;;;;;;4968199;28;20225;-78
2022/06/23 03:02:56;;;;;;;4.47;3.70;;;19.30;99.90;;;;;;4967071;28;20358;-79
2022/06/23 03:05:32;;;;;;;5.53;3.92;;;19.30;99.90;;;;;;4972056;28;20199;-78
2022/06/23 03:08:03;;;;;;;4.88;4.38;;;19.30;99.90;;;;;;4957249;28;20653;-78
2022/06/23 03:10:37;;;;;;;3.95;3.65;;;19.30;99.90;;;;;;4969835;28;20202;-78
2022/06/23 03:13:10;;;;;;;4.47;4.07;;;19.30;99.90;;;;;;4961922;28;20244;-78
2022/06/23 03:15:44;;;;;;;4.40;3.75;;;19.30;99.90;;;;;;4964415;28;20210;-78
2022/06/23 03:18:22;;;;;;;5.05;3.95;;;19.30;99.90;;;;;;4960300;28;20218;-78
2022/06/23 03:20:55;;;;;;;4.10;3.80;;;19.30;99.90;;;;;;4976167;28;20201;-78
2022/06/23 03:23:34;;;;;;;4.90;4.38;;;19.20;99.90;;;;;;4971900;28;20237;-78
2022/06/23 03:26:09;;;;;;;5.30;3.92;;;19.10;99.90;;;;;;4963954;28;20569;-78
2022/06/23 03:28:43;;;;;;;7.38;4.25;;;19.10;99.90;;;;;;4960566;28;20427;-76
2022/06/23 03:31:22;;;;;;;4.40;4.00;;;19.10;99.90;;;;;;4955696;28;20692;-78
2022/06/23 03:33:54;;;;;;;4.75;4.28;;;19.10;99.90;;;;;;4968749;28;20224;-78
2022/06/23 03:36:33;;;;;;;4.75;4.15;;;19.10;99.90;;;;;;4958651;28;20661;-78
2022/06/23 03:42:06;;;;;;;4.75;4.25;;;19.10;99.90;;;;;;4961374;28;20252;-77
2022/06/23 03:44:41;;;;;;;7.30;4.13;;;19.10;99.90;;;;;;4958356;28;20225;-79
2022/06/23 03:47:17;;;;;;;4.90;4.43;;;19.10;99.90;;;;;;4962941;28;20201;-76
2022/06/23 03:49:49;;;;;;;7.97;5.28;;;19.10;99.90;;;;;;4968702;28;20634;-76
2022/06/23 03:52:34;;;;;;;6.05;4.93;;;19.10;99.90;;;;;;4957485;28;20222;-78
2022/06/23 03:55:09;;;;;;;4.97;4.55;;;19.10;99.90;;;;;;4962702;28;20217;-77
2022/06/23 03:57:42;;;;;;;4.68;4.28;;;19.00;99.90;;;;;;4957774;28;20198;-78
2022/06/23 04:00:22;;;;;;;4.82;4.43;;;19.10;99.90;;;;;;4963047;28;20214;-78
2022/06/23 04:02:59;;;;;;;6.40;4.55;;;19.10;99.90;;;;;;4969578;28;20224;-78
2022/06/23 04:05:38;;;;;;;5.05;4.30;;;19.10;99.90;;;;;;4961812;28;20210;-77
2022/06/23 04:08:06;;;;;;;4.97;4.40;;;19.20;99.90;;;;;;4966783;28;20208;-78
2022/06/23 04:10:38;;;;;;;4.80;4.40;;;19.20;99.90;;;;;;4958764;28;20708;-78
2022/06/23 04:13:15;;;;;;;4.72;4.25;;;19.30;99.90;;;;;;4973451;28;20228;-78
2022/06/23 04:15:43;;;;;;;5.22;4.60;;;19.30;99.90;;;;;;4960407;28;20721;-78
2022/06/23 04:18:16;;;;;;;4.57;4.18;;;19.40;99.90;;;;;;4960283;28;20205;-78
2022/06/23 04:20:51;;;;;;;4.93;4.28;;;19.40;99.90;;;;;;4962545;28;20718;-78
2022/06/23 04:23:24;;;;;;;4.90;4.15;;;19.50;99.90;;;;;;4962419;28;20626;-79
2022/06/23 04:25:58;;;;;;;4.68;4.20;;;19.60;99.90;;;;;;4961425;28;20641;-78
2022/06/23 04:28:27;;;;;;;3.92;3.63;;;19.70;99.90;;;;;;4960744;28;20225;-77
2022/06/23 04:30:57;;;;;;;5.93;5.03;;;19.70;99.90;;;;;;4961112;28;20893;-77
2022/06/23 04:33:26;;;;;;;5.13;4.38;;;19.70;99.90;;;;;;4962599;28;20591;-79
2022/06/23 04:35:58;;;;;;;6.60;4.43;;;19.70;99.90;;;;;;4959852;28;20608;-79
2022/06/23 04:38:32;;;;;;;5.10;4.53;;;19.70;99.90;;;;;;4965178;28;20202;-78
2022/06/23 04:41:04;;;;;;;5.85;4.25;;;19.80;99.90;;;;;;4958829;28;20240;-79
2022/06/23 04:43:36;;;;;;;5.70;4.22;;;19.80;99.90;;;;;;4972211;28;20218;-78
2022/06/23 04:46:10;;;;;;;4.68;4.28;;;20.00;99.90;;;;;;4962510;28;20220;-78
2022/06/23 04:48:47;;;;;;;4.78;4.35;;;20.10;99.90;;;;;;4968585;28;20310;-77
2022/06/23 04:51:33;;;;;;;4.70;4.30;;;20.20;99.90;;;;;;4962598;28;20301;-77
2022/06/23 04:54:06;;;;;;;4.00;3.70;;;20.30;99.90;;;;;;4969866;28;20258;-78
2022/06/23 04:56:44;;;;;;;5.97;4.55;;;20.50;99.90;;;;;;4966947;28;20221;-78
2022/06/23 04:59:35;;;;;;;4.68;4.20;;;20.60;99.90;;;;;;4963157;28;20224;-79
2022/06/23 05:02:15;;;;;;;9.95;5.22;;;20.70;99.90;;;;;;4961531;28;20236;-78
2022/06/23 05:04:44;;;;;;;5.47;4.97;;;20.80;99.90;;;;;;4974116;28;20213;-79
2022/06/23 05:07:20;;;;;;;5.82;4.85;;;20.80;99.90;;;;;;4965812;28;20221;-78
2022/06/23 05:09:48;;;;;;;6.18;4.70;;;20.80;99.90;;;;;;4962456;28;20218;-78
2022/06/23 05:12:23;;;;;;;7.45;5.43;;;20.90;99.90;;;;;;4961107;28;20224;-78
2022/06/23 05:14:58;;;;;;;5.40;4.90;;;21.00;99.90;;;;;;4962404;28;20193;-80
2022/06/23 05:17:28;;;;;;;12.25;5.97;;;21.00;99.90;;;;;;4959143;28;20707;-79
2022/06/23 05:19:58;;;;;;;7.00;5.70;;;21.00;99.90;;;;;;4957152;28;20237;-78
2022/06/23 05:22:32;;;;;;;7.05;5.43;;;21.00;99.90;;;;;;4966094;28;20237;-78
2022/06/23 05:25:11;;;;;;;7.80;5.63;;;21.10;99.90;;;;;;4963396;28;20545;-78
2022/06/23 05:27:38;;;;;;;9.20;6.10;;;21.20;99.90;;;;;;4960477;28;20222;-77
2022/06/23 05:30:25;;;;;;;12.23;6.22;;;21.20;99.90;;;;;;4963573;28;20279;-78
2022/06/23 05:32:56;;;;;;;6.63;5.63;;;21.20;99.90;;;;;;4961126;28;20275;-77
2022/06/23 05:35:28;;;;;;;7.15;5.40;;;21.30;99.90;;;;;;4962749;28;20197;-78
2022/06/23 05:38:01;;;;;;;6.03;5.43;;;21.40;99.90;;;;;;4963014;28;20248;-77
2022/06/23 05:40:33;;;;;;;5.60;5.00;;;21.50;99.90;;;;;;4963184;28;20249;-79
2022/06/23 05:43:02;;;;;;;7.68;5.05;;;21.60;99.90;;;;;;4968774;28;20261;-79
2022/06/23 05:45:37;;;;;;;6.53;5.60;;;21.70;99.90;;;;;;4960445;28;20229;-76
2022/06/23 05:48:06;;;;;;;9.32;5.25;;;21.70;99.90;;;;;;4962140;28;20251;-78
2022/06/23 05:50:42;;;;;;;6.25;5.40;;;21.90;99.90;;;;;;4960968;28;20202;-77
2022/06/23 05:53:15;;;;;;;9.43;5.60;;;22.00;99.90;;;;;;4953760;28;20221;-78
2022/06/23 05:55:48;;;;;;;5.60;5.00;;;22.00;99.90;;;;;;4962611;28;20202;-78
2022/06/23 05:58:21;;;;;;;5.53;4.82;;;22.00;99.90;;;;;;4969271;28;20214;-78
2022/06/23 06:00:52;;;;;;;8.05;5.15;;;22.20;99.90;;;;;;4963879;28;20222;-78
2022/06/23 06:03:25;;;;;;;7.88;5.07;;;22.20;99.90;;;;;;4966024;28;20824;-78
2022/06/23 06:05:56;;;;;;;7.38;5.38;;;22.30;99.90;;;;;;4958188;28;20221;-78
2022/06/23 06:08:29;;;;;;;7.60;4.55;;;22.30;99.90;;;;;;4967231;28;20273;-78
2022/06/23 06:10:56;;;;;;;5.28;4.30;;;22.40;99.90;;;;;;4967370;28;20573;-78
2022/06/23 06:13:27;;;;;;;6.28;4.25;;;22.50;99.90;;;;;;4969667;28;20723;-78
2022/06/23 06:15:57;;;;;;;7.55;4.65;;;22.60;99.90;;;;;;4966226;28;20205;-78
2022/06/23 06:18:29;;;;;;;7.75;5.10;;;22.70;99.90;;;;;;4965310;28;20226;-78
2022/06/23 06:21:00;;;;;;;6.00;3.92;;;22.70;99.90;;;;;;4962696;28;20736;-79
2022/06/23 06:23:35;;;;;;;12.25;5.30;;;22.80;99.90;;;;;;4961570;28;20535;-79
2022/06/23 06:26:03;;;;;;;5.28;4.03;;;22.80;99.90;;;;;;4982035;23;20233;-77
2022/06/23 06:28:32;;;;;;;5.53;4.75;;;22.70;99.90;;;;;;4962169;28;20225;-78
2022/06/23 06:31:05;;;;;;;4.75;4.28;;;22.80;99.90;;;;;;4965340;28;20202;-78
2022/06/23 06:33:43;;;;;;;6.43;5.00;;;22.80;99.90;;;;;;4968536;28;20917;-78
2022/06/23 06:36:31;;;;;;;7.00;5.18;;;22.90;99.90;;;;;;4953538;28;20262;-78
2022/06/23 06:39:05;;;;;;;7.95;5.03;;;23.00;99.90;;;;;;4946166;28;20285;-79
2022/06/23 06:41:33;;;;;;;4.22;3.70;;;22.90;99.90;;;;;;4947446;28;20236;-79
2022/06/23 06:44:02;;;;;;;6.82;4.28;;;23.00;99.90;;;;;;4948657;28;20233;-78
2022/06/23 06:46:30;;;;;;;6.53;4.55;;;23.20;99.90;;;;;;4948344;28;21032;-77
2022/06/23 06:48:58;;;;;;;6.38;4.18;;;23.10;99.90;;;;;;4940854;28;20198;-75
2022/06/23 06:51:29;;;;;;;5.80;4.28;;;23.30;99.90;;;;;;4944062;29;20210;-74
2022/06/23 06:54:01;;;;;;;6.22;4.57;;;23.40;99.90;;;;;;4942722;28;20209;-75
2022/06/23 06:56:35;;;;;;;6.15;4.63;;;23.60;99.90;;;;;;4942813;28;20301;-77
2022/06/23 06:59:09;;;;;;;8.73;4.95;;;23.70;99.90;;;;;;4945591;28;20206;-77
2022/06/23 07:01:39;;;;;;;8.48;4.72;;;23.70;99.90;;;;;;4941406;28;20846;-76
2022/06/23 07:04:09;;;;;;;7.35;4.97;;;23.70;99.90;;;;;;4944110;28;20290;-76
2022/06/23 07:06:41;;;;;;;8.25;4.95;;;23.60;99.90;;;;;;4944285;29;20222;-75
2022/06/23 07:09:24;;;;;;;5.68;4.85;;;23.70;99.90;;;;;;4944845;28;20194;-76
2022/06/23 07:12:00;;;;;;;10.07;5.10;;;23.80;99.90;;;;;;4941248;28;20236;-75
2022/06/23 07:14:37;;;;;;;8.27;5.35;;;24.10;99.90;;;;;;4947322;28;20298;-74
2022/06/23 07:17:16;;;;;;;6.68;4.88;;;24.10;99.90;;;;;;4950380;28;20225;-74
2022/06/23 07:19:56;;;;;;;7.03;4.78;;;24.30;99.90;;;;;;4949392;28;20226;-73
2022/06/23 07:22:29;;;;;;;6.90;4.97;;;24.20;99.90;;;;;;4952803;28;20600;-73
2022/06/23 07:25:02;;;;;;;9.52;4.78;;;24.20;99.90;;;;;;4939649;28;20236;-72
2022/06/23 07:27:37;;;;;;;5.30;4.80;;;24.00;99.90;;;;;;4939588;28;20526;-72
2022/06/23 07:30:08;;;;;;;7.22;5.28;;;23.80;99.90;;;;;;4936510;28;20531;-72
2022/06/23 07:32:40;;;;;;;5.90;5.32;;;24.00;99.90;;;;;;4943975;28;20219;-73
2022/06/23 07:35:19;;;;;;;7.20;5.50;;;24.20;99.90;;;;;;4937877;28;20242;-74
2022/06/23 07:37:51;;;;;;;7.22;4.97;;;24.30;99.90;;;;;;4941601;28;20621;-72
2022/06/23 07:40:22;;;;;;;8.02;4.90;;;24.50;99.90;;;;;;4939195;28;20638;-71
2022/06/23 07:42:54;;;;;;;5.80;4.88;;;24.50;99.90;;;;;;4941249;28;20725;-72
2022/06/23 07:45:27;;;;;;;7.60;5.05;;;24.70;99.90;;;;;;4948752;28;20252;-72
2022/06/23 07:47:54;;;;;;;7.32;5.13;;;24.90;99.90;;;;;;4936827;28;20656;-72
2022/06/23 07:50:21;;;;;;;6.00;4.40;;;25.00;99.90;;;;;;4937156;28;20213;-72
2022/06/23 07:52:49;;;;;;;5.72;4.10;;;25.10;99.90;;;;;;4940303;28;20229;-73
2022/06/23 07:55:22;;;;;;;7.68;4.78;;;25.10;99.90;;;;;;4938736;28;20218;-73
2022/06/23 07:57:50;;;;;;;7.70;4.70;;;25.10;99.90;;;;;;4940465;28;20230;-72
2022/06/23 08:00:18;;;;;;;5.07;4.18;;;25.10;99.90;;;;;;4938526;28;20274;-74
2022/06/23 08:02:52;;;;;;;6.57;4.65;;;25.30;99.90;;;;;;4935974;28;20626;-73
2022/06/23 08:05:23;;;;;;;5.03;4.55;;;25.40;99.90;;;;;;4941263;28;20234;-74
2022/06/23 08:07:50;;;;;;;6.68;4.50;;;25.40;99.90;;;;;;4936189;28;20221;-73
2022/06/23 08:10:23;;;;;;;5.32;4.53;;;25.40;99.90;;;;;;4940327;28;20721;-73
2022/06/23 08:12:54;;;;;;;5.72;4.22;;;25.50;99.90;;;;;;4939731;28;20215;-71
2022/06/23 08:18:16;;;;;;;7.40;4.70;;;26.00;99.90;;;;;;4940978;28;20280;-74
2022/06/23 08:20:50;;;;;;;7.13;5.38;;;25.80;99.90;;;;;;4939206;28;20214;-74
2022/06/23 08:23:21;;;;;;;6.70;4.80;;;25.70;99.90;;;;;;4945020;28;20225;-73
2022/06/23 08:25:49;;;;;;;6.57;4.55;;;25.90;99.90;;;;;;4935865;28;20230;-72
2022/06/23 08:28:17;;;;;;;4.60;4.20;;;26.00;99.90;;;;;;4935926;28;20230;-73
2022/06/23 08:30:46;;;;;;;6.05;4.20;;;26.20;99.90;;;;;;4937825;29;20698;-73
2022/06/23 08:33:14;;;;;;;6.50;4.47;;;26.30;99.90;;;;;;4934619;28;20236;-72
2022/06/23 08:35:44;;;;;;;7.20;3.83;;;26.40;99.90;;;;;;4940346;28;20230;-73
2022/06/23 08:38:17;;;;;;;4.53;4.13;;;26.70;99.90;;;;;;4939376;28;20221;-74
2022/06/23 08:40:59;;;;;;;6.20;3.83;;;26.70;99.90;;;;;;4935741;28;20250;-72
2022/06/23 08:43:35;;;;;;;6.60;4.05;;;26.80;99.90;;;;;;4937906;28;20309;-74
2022/06/23 08:46:10;;;;;;;5.18;3.90;;;26.60;99.90;;;;;;4939037;28;21253;-74
2022/06/23 08:48:43;;;;;;;4.13;3.70;;;26.60;99.90;;;;;;4939765;28;20225;-73
2022/06/23 08:51:18;;;;;;;3.72;3.42;;;26.70;99.90;;;;;;4938268;28;20605;-73
2022/06/23 08:53:58;;;;;;;5.10;3.88;;;27.10;99.90;;;;;;4932863;28;20331;-74
2022/06/23 08:56:32;;;;;;;6.03;4.30;;;27.40;99.90;;;;;;4936649;28;20242;-74
2022/06/23 08:59:09;;;;;;;6.53;4.05;;;27.50;99.90;;;;;;4940173;28;20257;-76
2022/06/23 09:01:43;;;;;;;5.55;3.35;;;27.40;99.90;;;;;;4933142;28;20226;-75
2022/06/23 09:04:18;;;;;;;5.43;3.25;;;27.30;99.90;;;;;;4939976;28;20199;-74
2022/06/23 09:06:53;;;;;;;5.40;3.33;;;27.20;99.90;;;;;;4935256;28;20654;-74
2022/06/23 09:09:29;;;;;;;3.30;3.00;;;27.20;99.90;;;;;;4939096;28;20202;-77
2022/06/23 09:12:07;;;;;;;3.20;2.88;;;27.40;99.90;;;;;;4936991;28;20402;-75
2022/06/23 09:15:00;;;;;;;5.18;3.53;;;27.70;99.90;;;;;;4941024;28;20222;-76
2022/06/23 09:17:59;;;;;;;5.05;3.80;;;27.90;99.90;;;;;;4940943;28;20221;-78
2022/06/23 09:20:52;;;;;;;6.20;3.53;;;27.90;99.90;;;;;;4941717;28;20229;-74
2022/06/23 09:23:38;;;;;;;4.43;3.40;;;27.80;99.90;;;;;;4937679;28;20232;-77
2022/06/23 09:26:14;;;;;;;5.75;3.67;;;27.90;99.90;;;;;;4938657;28;20230;-77
2022/06/23 09:28:53;;;;;;;5.70;3.50;;;28.10;99.90;;;;;;4943303;28;20748;-76
2022/06/23 09:31:25;;;;;;;5.10;3.35;;;28.10;99.90;;;;;;4941520;28;20195;-78
2022/06/23 09:34:12;;;;;;;4.47;3.22;;;28.00;99.90;;;;;;4937556;28;20230;-78
2022/06/23 09:37:11;;;;;;;4.55;3.38;;;28.00;99.90;;;;;;4934518;28;20203;-76
2022/06/23 09:40:02;;;;;;;5.95;3.50;;;28.30;99.90;;;;;;4942288;28;20500;-76
2022/06/23 09:42:54;;;;;;;6.20;3.72;;;28.30;99.90;;;;;;4943524;28;20226;-75
2022/06/23 09:45:58;;;;;;;4.25;3.35;;;28.20;99.90;;;;;;4946349;28;20229;-76
2022/06/23 09:48:52;;;;;;;6.60;4.03;;;28.30;99.90;;;;;;4937048;28;20237;-75
2022/06/23 09:51:51;;;;;;;3.50;3.20;;;28.40;99.90;;;;;;4943521;28;20198;-77
2022/06/23 09:54:44;;;;;;;5.68;3.45;;;28.50;99.90;;;;;;4942064;28;20317;-75
2022/06/23 09:57:42;;;;;;;5.05;3.40;;;28.50;99.90;;;;;;4944738;28;20253;-77
2022/06/23 10:00:13;;;;;;;4.80;3.33;;;28.70;99.90;;;;;;4869426;28;20794;-75
2022/06/23 10:03:01;;;;;;;5.07;3.55;;;28.80;99.90;;;;;;4938750;28;20191;-74
2022/06/23 10:05:50;;;;;;;3.85;3.13;;;28.80;99.90;;;;;;4935457;28;20238;-75
2022/06/23 10:08:28;;;;;;;6.10;3.85;;;28.70;99.90;;;;;;4939719;28;20634;-75
2022/06/23 10:11:21;;;;;;;7.57;3.92;;;28.70;99.90;;;;;;4941649;28;21866;-74
2022/06/23 10:14:14;;;;;;;5.63;3.42;;;28.60;99.90;;;;;;4943175;28;20241;-75
2022/06/23 10:17:00;;;;;;;8.38;3.45;;;28.80;99.90;;;;;;4940371;28;20298;-76
2022/06/23 10:19:54;;;;;;;7.68;3.78;;;29.00;99.90;;;;;;4942025;28;20225;-75
2022/06/23 10:22:35;;;;;;;6.03;3.92;;;29.00;99.90;;;;;;4933571;28;20225;-76
2022/06/23 10:25:23;;;;;;;8.32;3.53;;;29.00;99.90;;;;;;4943906;28;20233;-74
2022/06/23 10:28:18;;;;;;;9.02;4.53;;;29.10;99.90;;;;;;4934933;28;20205;-76
2022/06/23 10:30:53;;;;;;;8.80;4.53;;;29.20;99.90;;;;;;4941074;28;20225;-76
2022/06/23 10:33:42;;;;;;;5.78;3.97;;;29.30;99.90;;;;;;4944335;28;20194;-76
2022/06/23 10:36:53;;;;;;;8.93;4.65;;;29.30;99.90;;;;;;4939130;28;20233;-78
2022/06/23 10:39:41;;;;;;;5.82;4.20;;;29.20;99.90;;;;;;4938685;28;20714;-77
2022/06/23 10:42:41;;;;;;;6.13;4.30;;;29.20;99.90;;;;;;4940185;28;20222;-77
2022/06/23 10:45:33;;;;;;;7.32;4.70;;;29.30;99.90;;;;;;4939582;28;20634;-77
2022/06/23 10:48:36;;;;;;;6.53;4.00;;;29.20;99.90;;;;;;4942699;28;20589;-77
2022/06/23 10:51:13;;;;;;;7.13;4.40;;;29.20;99.90;;;;;;4944595;28;20560;-78
2022/06/23 10:54:17;;;;;;;6.35;4.22;;;29.30;99.90;;;;;;4941172;28;20629;-80
2022/06/23 10:57:04;;;;;;;6.32;4.28;;;29.40;99.90;;;;;;4931369;28;20230;-78
2022/06/23 10:59:49;;;;;;;9.60;4.38;;;29.50;99.90;;;;;;4945025;28;20241;-74
2022/06/23 11:02:48;;;;;;;7.07;5.38;;;29.70;99.90;;;;;;4943403;28;20256;-82
2022/06/23 11:05:47;;;;;;;6.30;4.28;;;29.60;99.90;;;;;;4916038;28;20606;-76
2022/06/23 11:08:40;;;;;;;8.98;4.38;;;29.70;99.90;;;;;;4930967;28;20190;-76
2022/06/23 11:11:22;;;;;;;6.95;4.43;;;29.70;99.90;;;;;;4932208;28;20223;-77
2022/06/23 11:13:58;;;;;;;5.03;4.05;;;29.80;99.90;;;;;;4939075;29;20768;-74
2022/06/23 11:16:36;;;;;;;6.22;4.20;;;29.70;99.90;;;;;;4940610;28;20272;-77
2022/06/23 11:19:18;;;;;;;5.60;3.80;;;29.90;99.90;;;;;;4937167;29;20713;-78
2022/06/23 11:22:01;;;;;;;6.40;3.70;;;29.90;99.90;;;;;;4935983;28;20225;-76
2022/06/23 11:24:42;;;;;;;5.18;3.90;;;30.00;99.90;;;;;;4934137;28;20226;-76
2022/06/23 11:27:21;;;;;;;5.03;3.55;;;30.20;99.90;;;;;;4934245;28;20202;-76
2022/06/23 11:30:04;;;;;;;13.30;3.95;;;30.20;99.90;;;;;;4938828;28;20234;-75
2022/06/23 11:32:40;;;;;;;3.70;2.90;;;30.30;99.90;;;;;;4940300;28;20195;-77
2022/06/23 11:35:34;;;;;;;7.15;3.50;;;30.40;99.90;;;;;;4939999;28;20309;-76
2022/06/23 11:38:26;;;;;;;6.45;3.90;;;30.60;99.90;;;;;;4939496;28;20202;-76
2022/06/23 11:41:06;;;;;;;7.30;4.00;;;30.50;99.90;;;;;;4939940;28;20237;-76
2022/06/23 11:43:50;;;;;;;9.80;4.03;;;30.90;99.90;;;;;;4939564;28;20768;-75
2022/06/23 11:46:28;;;;;;;6.90;3.75;;;30.90;99.90;;;;;;4941395;28;20225;-74
2022/06/23 11:49:18;;;;;;;6.38;3.50;;;31.00;99.90;;;;;;4938872;28;20198;-77
2022/06/23 11:51:58;;;;;;;6.72;3.97;;;31.30;99.90;;;;;;4937766;28;20992;-75
2022/06/23 11:54:40;;;;;;;5.13;3.83;;;31.40;99.90;;;;;;4937306;28;20615;-79
2022/06/23 11:57:21;;;;;;;8.30;3.78;;;31.40;99.90;;;;;;4938875;28;20230;-80
2022/06/23 12:00:02;;;;;;;7.30;3.65;;;31.30;99.90;;;;;;4936546;28;20202;-80
2022/06/23 12:02:29;;;;;;;8.05;4.18;;;31.30;99.90;;;;;;4937595;28;20636;-79
2022/06/23 12:05:17;;;;;;;7.07;4.13;;;31.40;99.90;;;;;;4935589;28;20218;-80
2022/06/23 12:08:07;;;;;;;6.88;3.58;;;31.50;99.90;;;;;;4938391;29;20685;-79
2022/06/23 12:10:37;;;;;;;10.30;3.88;;;31.50;99.90;;;;;;4939507;28;20240;-77
2022/06/23 12:13:05;;;;;;;9.75;4.18;;;31.50;99.90;;;;;;4938438;28;20203;-75
2022/06/23 12:15:39;;;;;;;9.23;4.50;;;31.50;99.90;;;;;;4938980;28;20237;-78
2022/06/23 12:18:13;;;;;;;8.70;4.18;;;31.40;99.90;;;;;;4944651;28;20750;-77
2022/06/23 12:20:49;;;;;;;11.52;3.88;;;31.40;99.90;;;;;;4936115;28;20222;-76
2022/06/23 12:23:23;;;;;;;10.35;4.28;;;31.50;99.90;;;;;;4942900;28;20253;-78
2022/06/23 12:26:02;;;;;;;9.80;4.22;;;31.70;99.90;;;;;;4935801;28;20265;-77
2022/06/23 12:28:38;;;;;;;12.85;4.78;;;31.50;99.90;;;;;;4934367;29;20205;-77
2022/06/23 12:31:18;;;;;;;12.32;4.82;;;31.60;99.90;;;;;;4941533;28;20244;-76
2022/06/23 12:33:53;;;;;;;9.13;4.13;;;31.50;99.90;;;;;;4940857;29;20893;-75
2022/06/23 12:36:29;;;;;;;10.38;4.55;;;31.60;99.90;;;;;;4942923;28;20253;-79
2022/06/23 12:39:00;;;;;;;11.40;4.55;;;31.80;99.90;;;;;;4940525;28;20197;-76
2022/06/23 12:41:31;;;;;;;13.00;4.15;;;31.80;99.90;;;;;;4936938;28;20273;-76
2022/06/23 12:44:08;;;;;;;9.35;4.28;;;31.70;99.90;;;;;;4944547;28;20405;-73
2022/06/23 12:46:47;;;;;;;11.57;4.43;;;31.70;99.90;;;;;;4939065;28;20221;-77
2022/06/23 12:49:38;;;;;;;13.60;4.05;;;31.70;99.90;;;;;;4937258;28;20201;-75
2022/06/23 12:55:24;;;;;;;11.38;4.03;;;31.90;99.90;;;;;;4951918;28;20221;-77
2022/06/23 12:58:12;;;;;;;9.00;4.45;;;31.90;99.90;;;;;;4946944;28;20236;-77
2022/06/23 13:00:57;;;;;;;8.00;4.20;;;31.80;99.90;;;;;;4954025;28;20324;-76
2022/06/23 13:03:31;;;;;;;10.93;4.43;;;31.70;99.90;;;;;;4960384;28;20230;-77
2022/06/23 13:06:12;;;;;;;17.60;4.72;;;31.70;99.90;;;;;;4955007;28;20206;-77
2022/06/23 13:08:50;;;;;;;10.93;4.22;;;31.70;99.90;;;;;;4955050;28;20229;-79
2022/06/23 13:11:20;;;;;;;14.30;4.63;;;31.80;99.90;;;;;;4951401;28;20282;-78
2022/06/23 13:13:53;;;;;;;11.82;4.35;;;31.80;99.90;;;;;;4956474;28;20317;-76
2022/06/23 13:16:26;;;;;;;10.68;4.63;;;31.80;99.90;;;;;;4953824;28;20221;-77
2022/06/23 13:19:09;;;;;;;8.98;4.50;;;31.80;99.90;;;;;;4949191;28;20265;-75
2022/06/23 13:21:40;;;;;;;13.00;4.65;;;31.90;99.90;;;;;;4951352;28;20759;-78
2022/06/23 13:24:10;;;;;;;13.57;4.65;;;31.80;99.90;;;;;;4955289;28;20570;-78
2022/06/23 13:26:42;;;;;;;12.68;4.68;;;31.70;99.90;;;;;;4956761;28;20579;-80
2022/06/23 13:29:17;;;;;;;15.27;4.78;;;31.70;99.90;;;;;;4956479;28;20201;-79
2022/06/23 13:31:48;;;;;;;11.20;5.03;;;31.60;99.90;;;;;;4956123;28;20197;-79
2022/06/23 13:34:21;;;;;;;11.05;4.57;;;31.50;99.90;;;;;;4957939;28;20213;-77
2022/06/23 13:36:54;;;;;;;14.20;5.40;;;31.60;99.90;;;;;;4960546;28;20676;-80
2022/06/23 13:39:27;;;;;;;13.85;5.20;;;31.50;99.90;;;;;;4952812;28;20312;-79
2022/06/23 13:42:01;;;;;;;15.45;4.93;;;31.50;99.90;;;;;;4957716;28;20440;-79
2022/06/23 13:44:34;;;;;;;9.98;4.70;;;31.50;99.90;;;;;;4956692;28;20225;-80